Nashville, Tennessee
Traffic Map
Current Weather Conditions
Nashville, Tennessee
Overcast
Overcast
66°
Feels Like: 66°
Wind Chill: 66° Ceiling: 8500
Heat Index: 66° Visibility: 10mi
Dew Point: 64° Wind: 0mph
Humidity: 93% Direction: ° ()
Pressure: 30.1in Gusts: 0mph
Raw Report DataKBNA 160853Z 00000KT 10SM OVC085 19/18 A3010 RMK AO2 SLP187 T01890178 58004
Traffic Incident Summary
Active as of:
Severity:
Category:
InformationThere was an issue retrieving the traffic information for this location. Please try a different location or try again shortly.
Advertisements
Track Severe Weather on mobile